createdAt,value
2022-11-21T00:00:07.991Z,81.59
2022-11-21T00:01:07.968Z,81.48
2022-11-21T00:02:08.096Z,81.79
2022-11-21T00:03:07.947Z,81.59
2022-11-21T00:04:07.931Z,81.86
2022-11-21T00:05:07.931Z,81.34
2022-11-21T00:06:07.918Z,81.13
2022-11-21T00:07:08.028Z,80.71
2022-11-21T00:08:07.914Z,80.40
2022-11-21T00:09:07.877Z,80.61
2022-11-21T00:10:07.880Z,80.19
2022-11-21T00:11:07.865Z,79.57
2022-11-21T00:12:07.850Z,79.88
2022-11-21T00:13:07.867Z,79.88
2022-11-21T00:14:07.857Z,79.98
2022-11-21T00:15:07.817Z,80.09
2022-11-21T00:16:07.807Z,80.30
2022-11-21T00:17:07.796Z,79.77
2022-11-21T00:18:07.793Z,80.30
2022-11-21T00:19:07.792Z,80.09
2022-11-21T00:20:07.773Z,80.57
2022-11-21T00:21:07.777Z,80.05
2022-11-21T00:22:07.740Z,79.94
2022-11-21T00:23:07.734Z,80.05
2022-11-21T00:24:07.744Z,79.84
2022-11-21T00:25:07.735Z,79.32
2022-11-21T00:26:07.704Z,79.84
2022-11-21T00:27:07.712Z,79.53
2022-11-21T00:28:07.765Z,79.63
2022-11-21T00:29:07.669Z,79.63
2022-11-21T00:30:07.691Z,79.32
2022-11-21T00:31:07.657Z,79.63
2022-11-21T00:32:07.652Z,79.74
2022-11-21T00:33:07.625Z,79.43
2022-11-21T00:34:07.644Z,79.43
2022-11-21T00:35:07.630Z,79.28
2022-11-21T00:36:07.632Z,80.05
2022-11-21T00:37:07.583Z,79.43
2022-11-21T00:38:07.587Z,79.84
2022-11-21T00:39:07.573Z,79.49
2022-11-21T00:40:07.559Z,78.87
2022-11-21T00:41:07.563Z,79.28
2022-11-21T00:42:07.577Z,79.39
2022-11-21T00:43:07.536Z,79.49
2022-11-21T00:44:07.524Z,79.60
2022-11-21T00:45:07.502Z,79.70
2022-11-21T00:46:07.488Z,79.28
2022-11-21T00:47:07.492Z,79.49
2022-11-21T00:48:07.497Z,78.97
2022-11-21T00:49:07.457Z,79.60
2022-11-21T00:50:07.466Z,79.18
2022-11-21T00:51:07.452Z,79.18
2022-11-21T00:52:07.434Z,79.18
2022-11-21T00:53:07.432Z,79.18
2022-11-21T00:54:07.429Z,79.08
2022-11-21T00:55:07.410Z,79.39
2022-11-21T00:56:07.390Z,78.97
2022-11-21T00:57:07.394Z,79.08
2022-11-21T00:58:07.362Z,79.28
2022-11-21T00:59:07.364Z,78.97
2022-11-21T01:00:07.343Z,79.18
2022-11-21T01:01:07.392Z,79.08
2022-11-21T01:02:07.321Z,79.08
2022-11-21T01:03:07.314Z,79.39
2022-11-21T01:04:07.328Z,79.60
2022-11-21T01:05:07.287Z,79.49
2022-11-21T01:06:07.279Z,78.97
2022-11-21T01:07:07.356Z,79.35
2022-11-21T01:08:07.253Z,79.49
2022-11-21T01:09:07.243Z,79.49
2022-11-21T01:10:07.249Z,79.60
2022-11-21T01:11:07.234Z,79.39
2022-11-21T01:12:07.216Z,79.49
2022-11-21T01:13:07.227Z,78.97
2022-11-21T01:14:07.200Z,79.56
2022-11-21T01:15:07.207Z,79.49
2022-11-21T01:16:07.189Z,79.46
2022-11-21T01:17:07.172Z,79.35
2022-11-21T01:18:07.169Z,79.35
2022-11-21T01:19:07.152Z,78.97
2022-11-21T01:20:07.150Z,79.35
2022-11-21T01:21:07.120Z,78.97
2022-11-21T01:22:07.130Z,82.37
2022-11-21T01:23:07.121Z,86.81
2022-11-21T01:24:07.085Z,87.08
2022-11-21T01:25:07.092Z,87.15
2022-11-21T01:26:07.093Z,85.06
2022-11-21T01:27:07.082Z,83.51
2022-11-21T01:28:07.060Z,81.12
2022-11-21T01:29:07.050Z,80.11
2022-11-21T01:30:07.031Z,79.49
2022-11-21T01:31:07.032Z,79.17
2022-11-21T01:32:07.032Z,79.17
2022-11-21T01:33:07.014Z,78.90
2022-11-21T01:34:06.992Z,78.90
2022-11-21T01:35:06.987Z,79.11
2022-11-21T01:36:06.969Z,79.00
2022-11-21T01:37:06.961Z,79.11
2022-11-21T01:38:06.943Z,78.80
2022-11-21T01:39:06.939Z,79.21
2022-11-21T01:40:06.914Z,79.21
2022-11-21T01:41:06.914Z,79.32
2022-11-21T01:42:06.915Z,79.52
2022-11-21T01:43:06.898Z,79.25
2022-11-21T01:44:06.901Z,79.21
2022-11-21T01:45:06.887Z,79.25
2022-11-21T01:46:06.870Z,79.25
2022-11-21T01:47:06.865Z,78.83
2022-11-21T01:48:06.838Z,79.56
2022-11-21T01:49:06.822Z,79.77
2022-11-21T01:50:11.767Z,79.56
2022-11-21T01:51:07.806Z,79.66
2022-11-21T01:52:06.815Z,79.77
2022-11-21T01:53:06.782Z,79.94
2022-11-21T01:54:06.834Z,79.63
2022-11-21T01:55:06.766Z,79.94
2022-11-21T01:56:06.763Z,79.21
2022-11-21T01:57:06.747Z,79.32
2022-11-21T01:58:06.787Z,79.52
2022-11-21T01:59:06.725Z,79.56
2022-11-21T02:00:06.994Z,79.46
2022-11-21T02:01:06.799Z,79.56
2022-11-21T02:02:06.689Z,79.56
2022-11-21T02:03:06.684Z,79.35
2022-11-21T02:04:06.689Z,79.56
2022-11-21T02:05:06.672Z,79.35
2022-11-21T02:06:06.658Z,79.98
2022-11-21T02:07:06.721Z,79.35
2022-11-21T02:08:06.620Z,79.46
2022-11-21T02:09:06.634Z,79.66
2022-11-21T02:10:06.603Z,79.56
2022-11-21T02:11:06.619Z,79.77
2022-11-21T02:12:06.574Z,79.98
2022-11-21T02:13:06.573Z,79.66
2022-11-21T02:14:06.554Z,79.77
2022-11-21T02:15:06.541Z,80.02
2022-11-21T02:16:06.547Z,79.39
2022-11-21T02:17:06.562Z,79.70
2022-11-21T02:18:06.530Z,79.28
2022-11-21T02:19:06.514Z,80.02
2022-11-21T02:20:06.507Z,80.22
2022-11-21T02:21:06.485Z,80.33
2022-11-21T02:22:06.494Z,80.50
2022-11-21T02:23:06.468Z,80.33
2022-11-21T02:24:06.453Z,79.60
2022-11-21T02:25:06.445Z,80.02
2022-11-21T02:26:06.427Z,79.91
2022-11-21T02:27:06.437Z,79.49
2022-11-21T02:28:06.415Z,80.02
2022-11-21T02:29:06.412Z,80.12
2022-11-21T02:30:06.393Z,79.98
2022-11-21T02:31:06.372Z,79.77
2022-11-21T02:32:06.369Z,80.29
2022-11-21T02:33:06.385Z,79.98
2022-11-21T02:34:06.352Z,79.80
2022-11-21T02:35:06.331Z,79.77
2022-11-21T02:36:06.327Z,79.77
2022-11-21T02:37:06.316Z,79.87
2022-11-21T02:38:06.325Z,79.80
2022-11-21T02:39:06.297Z,79.87
2022-11-21T02:40:06.286Z,79.39
2022-11-21T02:41:06.267Z,79.80
2022-11-21T02:42:06.265Z,79.70
2022-11-21T02:43:06.268Z,79.87
2022-11-21T02:44:06.592Z,79.87
2022-11-21T02:45:06.231Z,79.35
2022-11-21T02:46:06.263Z,79.46
2022-11-21T02:47:06.213Z,79.77
2022-11-21T02:48:06.193Z,79.98
2022-11-21T02:49:06.201Z,79.98
2022-11-21T02:50:06.173Z,79.98
2022-11-21T02:51:06.189Z,79.46
2022-11-21T02:52:06.156Z,79.91
2022-11-21T02:53:06.144Z,79.98
2022-11-21T02:54:06.140Z,80.19
2022-11-21T02:55:06.122Z,79.94
2022-11-21T02:56:06.137Z,79.73
2022-11-21T02:57:06.095Z,80.19
2022-11-21T02:58:06.095Z,79.98
2022-11-21T02:59:06.085Z,80.08
2022-11-21T03:00:06.062Z,80.40
2022-11-21T03:01:06.128Z,80.29
2022-11-21T03:02:06.079Z,80.50
2022-11-21T03:03:06.054Z,80.71
2022-11-21T03:04:06.030Z,80.08
2022-11-21T03:05:06.038Z,80.08
2022-11-21T03:06:06.015Z,80.29
2022-11-21T03:07:06.046Z,80.08
2022-11-21T03:08:05.999Z,80.40
2022-11-21T03:09:05.968Z,80.08
2022-11-21T03:10:05.973Z,80.81
2022-11-21T03:11:05.959Z,80.19
2022-11-21T03:12:05.938Z,80.60
2022-11-21T03:13:05.969Z,80.57
2022-11-21T03:14:05.938Z,80.88
2022-11-21T03:15:05.923Z,80.67
2022-11-21T03:16:05.903Z,80.26
2022-11-21T03:17:05.888Z,80.36
2022-11-21T03:18:05.882Z,80.60
2022-11-21T03:19:05.866Z,80.15
2022-11-21T03:20:05.887Z,80.36
2022-11-21T03:21:05.861Z,80.67
2022-11-21T03:22:05.833Z,80.67
2022-11-21T03:23:05.822Z,80.36
2022-11-21T03:24:05.817Z,80.57
2022-11-21T03:25:05.797Z,80.67
2022-11-21T03:26:05.803Z,80.57
2022-11-21T03:27:05.780Z,80.36
2022-11-21T03:28:05.787Z,80.67
2022-11-21T03:29:05.764Z,80.46
2022-11-21T03:30:05.747Z,80.36
2022-11-21T03:31:05.797Z,80.57
2022-11-21T03:32:05.730Z,80.26
2022-11-21T03:33:05.728Z,80.57
2022-11-21T03:34:05.718Z,80.57
2022-11-21T03:35:05.709Z,80.63
2022-11-21T03:36:05.705Z,80.05
2022-11-21T03:37:05.699Z,80.26
2022-11-21T03:38:05.671Z,80.22
2022-11-21T03:39:05.661Z,80.05
2022-11-21T03:40:05.649Z,80.15
2022-11-21T03:41:05.652Z,80.22
2022-11-21T03:42:05.630Z,80.01
2022-11-21T03:43:05.622Z,80.43
2022-11-21T03:44:05.607Z,80.53
2022-11-21T03:45:05.598Z,80.53
2022-11-21T03:46:05.581Z,80.43
2022-11-21T03:47:05.585Z,80.32
2022-11-21T03:48:05.558Z,80.63
2022-11-21T03:49:05.544Z,80.32
2022-11-21T03:50:05.538Z,80.43
2022-11-21T03:51:05.531Z,80.36
2022-11-21T03:52:05.529Z,80.43
2022-11-21T03:53:05.539Z,80.01
2022-11-21T03:54:05.499Z,80.63
2022-11-21T03:55:05.489Z,80.11
2022-11-21T03:56:05.472Z,80.53
2022-11-21T03:57:05.463Z,80.32
2022-11-21T03:58:05.482Z,80.22
2022-11-21T03:59:13.504Z,80.11
2022-11-21T04:00:05.444Z,80.63
2022-11-21T04:01:06.013Z,80.67
2022-11-21T04:02:05.408Z,80.53
2022-11-21T04:03:05.405Z,80.46
2022-11-21T04:04:05.406Z,80.26
2022-11-21T04:05:05.383Z,80.46
2022-11-21T04:06:05.374Z,80.88
2022-11-21T04:07:05.392Z,80.67
2022-11-21T04:08:05.359Z,80.15
2022-11-21T04:09:05.384Z,80.60
2022-11-21T04:10:05.328Z,80.60
2022-11-21T04:11:05.312Z,80.36
2022-11-21T04:12:07.873Z,80.60
2022-11-21T04:13:05.299Z,80.29
2022-11-21T04:14:05.321Z,80.40
2022-11-21T04:15:09.287Z,80.60
2022-11-21T04:16:06.268Z,80.60
2022-11-21T04:17:05.255Z,80.60
2022-11-21T04:18:05.238Z,80.50
2022-11-21T04:19:05.230Z,80.81
2022-11-21T04:20:05.237Z,81.12
2022-11-21T04:21:05.216Z,80.71
2022-11-21T04:22:05.228Z,80.81
2022-11-21T04:23:05.197Z,80.91
2022-11-21T04:24:05.184Z,80.91
2022-11-21T04:25:05.197Z,80.50
2022-11-21T04:26:05.158Z,80.91
2022-11-21T04:27:05.154Z,81.23
2022-11-21T04:28:05.159Z,81.33
2022-11-21T04:29:05.130Z,81.12
2022-11-21T04:30:05.131Z,80.91
2022-11-21T04:31:09.869Z,80.36
2022-11-21T04:32:06.113Z,80.36
2022-11-21T04:33:05.090Z,80.40
2022-11-21T04:34:05.074Z,80.40
2022-11-21T04:35:05.068Z,80.50
2022-11-21T04:36:05.084Z,80.81
2022-11-21T04:37:08.879Z,80.60
2022-11-21T04:38:06.028Z,80.50
2022-11-21T04:39:05.042Z,80.71
2022-11-21T04:40:05.046Z,80.81
2022-11-21T04:41:05.099Z,80.19
2022-11-21T04:42:05.024Z,80.40
2022-11-21T04:43:04.993Z,80.50
2022-11-21T04:44:04.970Z,80.60
2022-11-21T04:45:04.958Z,80.36
2022-11-21T04:46:04.959Z,80.19
2022-11-21T04:47:05.711Z,80.71
2022-11-21T04:48:04.978Z,80.81
2022-11-21T04:49:04.920Z,80.60
2022-11-21T04:50:04.915Z,80.60
2022-11-21T04:51:04.892Z,80.60
2022-11-21T04:52:04.895Z,80.40
2022-11-21T04:53:04.881Z,80.05
2022-11-21T04:54:04.885Z,80.67
2022-11-21T04:55:04.861Z,80.60
2022-11-21T04:56:04.855Z,80.67
2022-11-21T04:57:04.863Z,80.57
2022-11-21T04:58:04.886Z,80.36
2022-11-21T04:59:04.819Z,80.26
2022-11-21T05:00:04.798Z,80.15
2022-11-21T05:01:04.849Z,80.05
2022-11-21T05:02:04.797Z,80.15
2022-11-21T05:03:04.817Z,80.26
2022-11-21T05:04:04.766Z,80.46
2022-11-21T05:05:04.757Z,80.15
2022-11-21T05:06:04.743Z,80.46
2022-11-21T05:07:04.778Z,80.15
2022-11-21T05:08:04.725Z,79.83
2022-11-21T05:09:04.742Z,80.15
2022-11-21T05:10:04.694Z,80.15
2022-11-21T05:11:04.684Z,80.05
2022-11-21T05:12:04.686Z,80.05
2022-11-21T05:13:04.698Z,80.15
2022-11-21T05:14:04.650Z,80.15
2022-11-21T05:15:04.651Z,79.94
2022-11-21T05:16:04.631Z,80.26
2022-11-21T05:17:04.621Z,80.05
2022-11-21T05:18:04.623Z,80.15
2022-11-21T05:19:04.617Z,80.36
2022-11-21T05:20:04.610Z,80.15
2022-11-21T05:21:04.592Z,79.63
2022-11-21T05:22:04.570Z,79.83
2022-11-21T05:23:04.559Z,79.80
2022-11-21T05:24:04.574Z,79.94
2022-11-21T05:25:04.549Z,79.69
2022-11-21T05:26:04.538Z,80.01
2022-11-21T05:27:04.527Z,80.22
2022-11-21T05:28:04.502Z,80.11
2022-11-21T05:29:04.531Z,79.80
2022-11-21T05:30:04.512Z,79.59
2022-11-21T05:31:04.499Z,79.80
2022-11-21T05:32:04.475Z,79.59
2022-11-21T05:33:04.473Z,79.91
2022-11-21T05:34:04.449Z,79.80
2022-11-21T05:35:04.432Z,79.17
2022-11-21T05:36:04.441Z,79.59
2022-11-21T05:37:04.432Z,79.69
2022-11-21T05:38:04.407Z,79.69
2022-11-21T05:39:04.398Z,79.49
2022-11-21T05:40:04.390Z,79.69
2022-11-21T05:41:04.370Z,79.59
2022-11-21T05:42:04.379Z,79.38
2022-11-21T05:43:04.346Z,79.80
2022-11-21T05:44:04.350Z,79.94
2022-11-21T05:45:04.344Z,80.01
2022-11-21T05:46:04.317Z,80.22
2022-11-21T05:47:04.306Z,80.43
2022-11-21T05:48:04.314Z,80.43
2022-11-21T05:49:04.280Z,80.53
2022-11-21T05:50:04.293Z,80.63
2022-11-21T05:51:04.270Z,80.53
2022-11-21T05:52:04.260Z,80.74
2022-11-21T05:53:04.555Z,80.53
2022-11-21T05:54:04.232Z,80.43
2022-11-21T05:55:04.235Z,80.11
2022-11-21T05:56:04.211Z,80.63
2022-11-21T05:57:04.227Z,80.53
2022-11-21T05:58:04.199Z,80.63
2022-11-21T05:59:04.197Z,80.84
2022-11-21T06:00:04.172Z,80.94
2022-11-21T06:01:04.175Z,80.94
2022-11-21T06:02:04.173Z,80.43
2022-11-21T06:03:04.195Z,80.39
2022-11-21T06:04:04.166Z,80.80
2022-11-21T06:05:04.140Z,80.80
2022-11-21T06:06:04.109Z,80.80
2022-11-21T06:07:04.184Z,80.80
2022-11-21T06:08:04.094Z,80.94
2022-11-21T06:09:04.092Z,80.91
2022-11-21T06:10:04.084Z,80.91
2022-11-21T06:11:04.064Z,81.12
2022-11-21T06:12:04.047Z,81.84
2022-11-21T06:13:04.031Z,81.22
2022-11-21T06:14:04.034Z,81.43
2022-11-21T06:15:04.036Z,81.22
2022-11-21T06:16:04.017Z,81.32
2022-11-21T06:17:04.027Z,81.32
2022-11-21T06:18:03.989Z,81.32
2022-11-21T06:19:03.969Z,81.63
2022-11-21T06:20:03.965Z,81.22
2022-11-21T06:21:03.978Z,81.22
2022-11-21T06:22:03.965Z,81.95
2022-11-21T06:23:04.003Z,82.26
2022-11-21T06:24:03.918Z,82.15
2022-11-21T06:25:03.933Z,82.15
2022-11-21T06:26:03.903Z,81.98
2022-11-21T06:27:03.961Z,81.74
2022-11-21T06:28:03.906Z,82.15
2022-11-21T06:29:03.868Z,82.05
2022-11-21T06:30:03.876Z,82.05
2022-11-21T06:31:03.855Z,82.05
2022-11-21T06:32:03.854Z,82.05
2022-11-21T06:33:03.888Z,82.05
2022-11-21T06:34:03.817Z,82.05
2022-11-21T06:35:03.818Z,82.05
2022-11-21T06:36:03.790Z,81.95
2022-11-21T06:37:03.784Z,81.53
2022-11-21T06:38:03.784Z,81.74
2022-11-21T06:39:03.761Z,82.05
2022-11-21T06:40:03.753Z,82.05
2022-11-21T06:41:03.748Z,81.74
2022-11-21T06:42:03.762Z,82.05
2022-11-21T06:43:03.726Z,82.05
2022-11-21T06:44:03.730Z,81.95
2022-11-21T06:45:03.715Z,81.95
2022-11-21T06:46:03.694Z,81.84
2022-11-21T06:47:03.675Z,82.05
2022-11-21T06:48:03.683Z,81.74
2022-11-21T06:49:03.899Z,81.74
2022-11-21T06:50:03.669Z,82.05
2022-11-21T06:51:03.651Z,82.05
2022-11-21T06:52:03.651Z,82.05
2022-11-21T06:53:03.643Z,82.15
2022-11-21T06:54:03.612Z,81.74
2022-11-21T06:55:03.697Z,81.63
2022-11-21T06:56:03.584Z,81.12
2022-11-21T06:57:03.585Z,81.12
2022-11-21T06:58:03.563Z,81.32
2022-11-21T06:59:03.567Z,81.63
2022-11-21T07:00:03.600Z,81.12
2022-11-21T07:01:03.585Z,81.32
2022-11-21T07:02:03.530Z,81.22
2022-11-21T07:03:03.678Z,81.18
2022-11-21T07:04:03.517Z,81.22
2022-11-21T07:05:03.540Z,81.22
2022-11-21T07:06:03.481Z,81.32
2022-11-21T07:07:03.517Z,81.53
2022-11-21T07:08:03.468Z,81.18
2022-11-21T07:09:32.760Z,81.43
2022-11-21T07:10:04.448Z,81.43
2022-11-21T07:11:24.202Z,81.43
2022-11-21T07:12:04.446Z,81.32
2022-11-21T07:13:03.407Z,81.32
2022-11-21T07:14:08.826Z,81.32
2022-11-21T07:15:04.451Z,81.32
2022-11-21T07:16:03.379Z,81.43
2022-11-21T07:17:03.395Z,81.63
2022-11-21T07:18:03.367Z,81.12
2022-11-21T07:19:03.379Z,81.12
2022-11-21T07:20:03.342Z,81.32
2022-11-21T07:21:03.346Z,81.22
2022-11-21T07:22:03.320Z,81.22
2022-11-21T07:23:03.344Z,81.22
2022-11-21T07:24:03.315Z,81.43
2022-11-21T07:25:03.288Z,81.32
2022-11-21T07:26:03.275Z,81.32
2022-11-21T07:27:03.275Z,81.43
2022-11-21T07:28:03.272Z,81.01
2022-11-21T07:29:03.263Z,81.36
2022-11-21T07:30:03.239Z,81.32
2022-11-21T07:31:07.104Z,81.32
2022-11-21T07:32:03.280Z,81.63
2022-11-21T07:33:03.247Z,81.43
2022-11-21T07:34:03.222Z,81.32
2022-11-21T07:35:03.191Z,81.12
2022-11-21T07:36:03.173Z,81.01
2022-11-21T07:37:05.306Z,81.36
2022-11-21T07:38:03.186Z,81.01
2022-11-21T07:39:03.158Z,81.43
2022-11-21T07:40:03.148Z,81.53
2022-11-21T07:41:03.119Z,81.12
2022-11-21T07:42:03.115Z,81.36
2022-11-21T07:43:06.703Z,81.57
2022-11-21T07:44:04.115Z,81.46
2022-11-21T07:45:03.105Z,81.43
2022-11-21T07:46:03.083Z,81.22
2022-11-21T07:47:03.072Z,81.32
2022-11-21T07:48:03.054Z,81.57
2022-11-21T07:49:03.847Z,81.63
2022-11-21T07:50:03.026Z,81.74
2022-11-21T07:51:03.038Z,80.91
2022-11-21T07:52:03.035Z,80.70
2022-11-21T07:53:03.022Z,80.70
2022-11-21T07:54:02.994Z,81.01
2022-11-21T07:55:02.971Z,80.18
2022-11-21T07:56:02.988Z,80.66
2022-11-21T07:57:02.955Z,81.12
2022-11-21T07:58:02.936Z,81.12
2022-11-21T07:59:02.925Z,80.70
2022-11-21T08:00:02.916Z,80.91
2022-11-21T08:01:02.917Z,80.66
2022-11-21T08:02:02.951Z,80.70
2022-11-21T08:03:02.883Z,80.80
2022-11-21T08:04:02.870Z,80.80
2022-11-21T08:05:02.856Z,80.39
2022-11-21T08:06:02.865Z,80.35
2022-11-21T08:07:02.897Z,80.39
2022-11-21T08:08:02.842Z,80.18
2022-11-21T08:09:02.843Z,80.46
2022-11-21T08:10:02.820Z,80.70
2022-11-21T08:11:02.827Z,80.91
2022-11-21T08:12:02.791Z,80.66
2022-11-21T08:13:02.799Z,80.77
2022-11-21T08:14:02.816Z,80.77
2022-11-21T08:15:02.758Z,80.35
2022-11-21T08:16:02.781Z,80.66
2022-11-21T08:17:02.736Z,80.25
2022-11-21T08:18:02.741Z,80.25
2022-11-21T08:19:02.750Z,80.15
2022-11-21T08:20:02.707Z,80.35
2022-11-21T08:21:02.730Z,80.39
2022-11-21T08:22:02.700Z,80.39
2022-11-21T08:23:02.685Z,80.29
2022-11-21T08:24:02.683Z,80.29
2022-11-21T08:25:02.705Z,80.29
2022-11-21T08:26:02.708Z,80.49
2022-11-21T08:27:02.641Z,80.18
2022-11-21T08:28:02.632Z,80.80
2022-11-21T08:29:02.642Z,81.01
2022-11-21T08:30:02.620Z,81.12
2022-11-21T08:31:02.594Z,80.80
2022-11-21T08:32:02.584Z,80.70
2022-11-21T08:33:02.595Z,80.18
2022-11-21T08:34:02.566Z,80.18
2022-11-21T08:35:02.568Z,80.39
2022-11-21T08:36:02.545Z,80.70
2022-11-21T08:37:02.538Z,80.39
2022-11-21T08:38:02.542Z,79.97
2022-11-21T08:39:02.515Z,80.32
2022-11-21T08:40:02.503Z,80.18
2022-11-21T08:41:02.529Z,80.18
2022-11-21T08:42:02.474Z,80.18
2022-11-21T08:43:02.494Z,80.08
2022-11-21T08:44:02.451Z,80.18
2022-11-21T08:45:02.442Z,80.39
2022-11-21T08:46:02.463Z,80.60
2022-11-21T08:47:03.062Z,80.60
2022-11-21T08:48:02.465Z,80.63
2022-11-21T08:49:02.449Z,80.39
2022-11-21T08:50:08.613Z,80.08
2022-11-21T08:51:03.394Z,80.08
2022-11-21T08:52:02.481Z,80.18
2022-11-21T08:53:02.386Z,80.53
2022-11-21T08:54:02.361Z,80.70
2022-11-21T08:55:02.358Z,80.18
2022-11-21T08:56:04.425Z,80.32
2022-11-21T08:57:02.343Z,80.08
2022-11-21T08:58:02.321Z,80.18
2022-11-21T08:59:02.339Z,80.32
2022-11-21T09:00:02.304Z,80.74
2022-11-21T09:01:02.278Z,80.60
2022-11-21T09:02:02.315Z,80.43
2022-11-21T09:03:02.266Z,80.32
2022-11-21T09:04:02.249Z,80.32
2022-11-21T09:05:02.257Z,80.29
2022-11-21T09:06:02.227Z,80.53
2022-11-21T09:07:02.324Z,80.74
2022-11-21T09:08:02.204Z,80.32
2022-11-21T09:09:02.199Z,80.53
2022-11-21T09:10:02.220Z,80.53
2022-11-21T09:11:02.194Z,80.49
2022-11-21T09:12:02.164Z,80.22
2022-11-21T09:13:02.169Z,80.32
2022-11-21T09:14:02.145Z,80.22
2022-11-21T09:15:02.135Z,80.18
2022-11-21T09:16:02.140Z,79.38
2022-11-21T09:17:02.536Z,79.49
2022-11-21T09:18:02.103Z,79.69
2022-11-21T09:19:02.097Z,79.69
2022-11-21T09:20:02.142Z,79.69
2022-11-21T09:21:02.087Z,79.69
2022-11-21T09:22:02.057Z,79.59
2022-11-21T09:23:02.048Z,80.01
2022-11-21T09:24:02.047Z,80.01
2022-11-21T09:25:02.034Z,80.32
2022-11-21T09:26:02.031Z,79.69
2022-11-21T09:27:02.033Z,79.69
2022-11-21T09:28:02.011Z,79.52
2022-11-21T09:29:01.997Z,78.90
2022-11-21T09:30:02.009Z,79.42
2022-11-21T09:31:01.962Z,79.87
2022-11-21T09:32:02.000Z,79.87
2022-11-21T09:33:01.951Z,79.77
2022-11-21T09:34:01.934Z,79.56
2022-11-21T09:35:01.922Z,79.77
2022-11-21T09:36:01.936Z,79.42
2022-11-21T09:37:01.901Z,79.25
2022-11-21T09:38:01.940Z,79.25
2022-11-21T09:39:01.887Z,78.83
2022-11-21T09:40:01.873Z,79.14
2022-11-21T09:41:01.887Z,79.35
2022-11-21T09:42:01.858Z,79.77
2022-11-21T09:43:01.845Z,79.46
2022-11-21T09:44:01.859Z,78.90
2022-11-21T09:45:01.892Z,79.04
2022-11-21T09:46:01.814Z,78.90
2022-11-21T09:47:01.806Z,78.90
2022-11-21T09:48:01.845Z,79.42
2022-11-21T09:49:01.800Z,79.52
2022-11-21T09:50:01.764Z,78.90
2022-11-21T09:51:01.763Z,79.42
2022-11-21T09:52:01.749Z,79.52
2022-11-21T09:53:01.756Z,79.56
2022-11-21T09:54:01.739Z,79.14
2022-11-21T09:55:01.721Z,79.35
2022-11-21T09:56:01.693Z,78.80
2022-11-21T09:57:01.685Z,79.04
2022-11-21T09:58:01.697Z,79.25
2022-11-21T09:59:01.756Z,78.94
2022-11-21T10:00:11.629Z,79.14
2022-11-21T10:01:01.774Z,79.32
2022-11-21T10:02:01.627Z,79.35
2022-11-21T10:03:01.620Z,79.35
2022-11-21T10:04:01.613Z,79.21
2022-11-21T10:05:01.616Z,79.52
2022-11-21T10:06:01.594Z,79.42
2022-11-21T10:07:01.618Z,79.11
2022-11-21T10:08:01.575Z,78.69
2022-11-21T10:09:01.668Z,78.52
2022-11-21T10:10:01.585Z,78.56
2022-11-21T10:11:09.177Z,78.87
2022-11-21T10:12:02.547Z,78.69
2022-11-21T10:13:01.524Z,79.32
2022-11-21T10:14:02.127Z,79.84
2022-11-21T10:15:01.521Z,80.26
2022-11-21T10:16:01.509Z,80.88
2022-11-21T10:17:01.472Z,80.54
2022-11-21T10:18:01.470Z,80.99
2022-11-21T10:19:01.625Z,80.64
2022-11-21T10:20:01.457Z,80.33
2022-11-21T10:21:01.447Z,80.12
2022-11-21T10:22:01.420Z,80.43
2022-11-21T10:23:01.417Z,79.39
2022-11-21T10:24:01.407Z,79.25
2022-11-21T10:25:01.396Z,79.56
2022-11-21T10:26:01.385Z,78.97
2022-11-21T10:27:01.388Z,79.18
2022-11-21T10:28:01.365Z,79.18
2022-11-21T10:29:01.389Z,78.83
2022-11-21T10:30:01.337Z,79.08
2022-11-21T10:31:01.335Z,79.60
2022-11-21T10:32:01.333Z,79.39
2022-11-21T10:33:01.329Z,79.39
2022-11-21T10:34:01.323Z,79.18
2022-11-21T10:35:01.279Z,79.14
2022-11-21T10:36:01.275Z,78.56
2022-11-21T10:37:01.265Z,78.77
2022-11-21T10:38:01.257Z,78.97
2022-11-21T10:39:01.426Z,78.24
2022-11-21T10:40:01.245Z,78.10
2022-11-21T10:41:01.237Z,78.73
2022-11-21T10:42:01.222Z,78.97
2022-11-21T10:43:01.204Z,79.04
2022-11-21T10:44:01.189Z,78.83
2022-11-21T10:45:01.200Z,78.73
2022-11-21T10:46:01.174Z,78.52
2022-11-21T10:47:01.165Z,78.83
2022-11-21T10:48:06.776Z,78.10
2022-11-21T10:49:02.137Z,78.94
2022-11-21T10:50:01.149Z,78.69
2022-11-21T10:51:01.118Z,78.73
2022-11-21T10:52:01.114Z,78.94
2022-11-21T10:53:01.102Z,78.63
2022-11-21T10:54:07.315Z,78.49
2022-11-21T10:55:02.092Z,78.69
2022-11-21T10:56:01.068Z,78.69
2022-11-21T10:57:01.058Z,78.90
2022-11-21T10:58:01.042Z,78.80
2022-11-21T10:59:01.038Z,78.76
2022-11-21T11:00:01.033Z,78.49
2022-11-21T11:01:01.112Z,78.49
2022-11-21T11:02:01.045Z,78.59
2022-11-21T11:03:00.996Z,78.38
2022-11-21T11:04:26.040Z,79.11
2022-11-21T11:05:01.971Z,78.28
2022-11-21T11:06:00.954Z,78.38
2022-11-21T11:07:00.963Z,78.07
2022-11-21T11:08:00.956Z,77.86
2022-11-21T11:09:00.926Z,77.65
2022-11-21T11:10:00.924Z,77.65
2022-11-21T11:11:01.766Z,78.10
2022-11-21T11:12:00.902Z,78.80
2022-11-21T11:13:02.123Z,78.73
2022-11-21T11:14:00.871Z,78.52
2022-11-21T11:15:00.871Z,79.14
2022-11-21T11:16:00.861Z,78.90
2022-11-21T11:17:00.848Z,78.83
2022-11-21T11:18:05.774Z,79.14
2022-11-21T11:19:01.843Z,78.94
2022-11-21T11:20:00.846Z,78.94
2022-11-21T11:21:00.798Z,79.00
2022-11-21T11:22:00.789Z,79.14
2022-11-21T11:23:00.781Z,78.94
2022-11-21T11:24:00.794Z,78.73
2022-11-21T11:25:01.270Z,78.63
2022-11-21T11:26:00.756Z,78.83
2022-11-21T11:27:00.741Z,78.63
2022-11-21T11:28:00.727Z,79.18
2022-11-21T11:29:00.726Z,79.28
2022-11-21T11:30:00.753Z,79.49
2022-11-21T11:31:00.697Z,79.28
2022-11-21T11:32:00.695Z,78.87
2022-11-21T11:33:00.673Z,79.66
2022-11-21T11:34:00.686Z,79.66
2022-11-21T11:35:00.660Z,78.90
2022-11-21T11:36:00.675Z,78.73
2022-11-21T11:37:00.632Z,78.52
2022-11-21T11:38:00.630Z,78.00
2022-11-21T11:39:00.626Z,77.89
2022-11-21T11:40:00.599Z,77.55
2022-11-21T11:41:00.601Z,77.48
2022-11-21T11:42:00.586Z,77.17
2022-11-21T11:43:00.569Z,77.48
2022-11-21T11:44:00.556Z,77.48
2022-11-21T11:45:00.559Z,77.48
2022-11-21T11:46:00.533Z,76.99
2022-11-21T11:47:00.533Z,77.51
2022-11-21T11:48:00.522Z,78.56
2022-11-21T11:50:01.506Z,79.28
2022-11-21T11:51:00.496Z,79.28
2022-11-21T11:52:00.490Z,78.97
2022-11-21T11:53:00.470Z,78.56
2022-11-21T11:54:01.433Z,78.34
2022-11-21T11:55:00.441Z,77.37
2022-11-21T11:56:00.442Z,77.37
2022-11-21T11:57:00.436Z,77.27
2022-11-21T11:58:00.408Z,76.86
2022-11-21T11:59:00.400Z,76.82
2022-11-21T12:00:00.396Z,77.03
2022-11-21T12:01:00.401Z,76.40
2022-11-21T12:02:00.419Z,76.40
2022-11-21T12:03:00.357Z,76.61
2022-11-21T12:04:00.362Z,76.43
2022-11-21T12:05:00.334Z,77.03
2022-11-21T12:06:03.500Z,77.23
2022-11-21T12:09:01.341Z,77.17
2022-11-21T12:10:00.281Z,76.96
2022-11-21T12:11:00.274Z,77.17
2022-11-21T12:12:00.288Z,77.27
2022-11-21T12:13:00.271Z,77.27
2022-11-21T12:14:00.250Z,76.72
2022-11-21T12:15:00.239Z,76.92
2022-11-21T12:16:07.138Z,76.82
2022-11-21T12:17:01.218Z,76.72
2022-11-21T12:18:00.210Z,77.03
2022-11-21T12:19:00.195Z,76.92
2022-11-21T12:20:00.195Z,76.72
2022-11-21T12:21:00.178Z,76.82
2022-11-21T12:22:00.194Z,76.99
2022-11-21T12:23:00.154Z,76.96
2022-11-21T12:24:00.168Z,76.99
2022-11-21T12:25:00.137Z,77.41
2022-11-21T12:26:00.111Z,78.77
2022-11-21T12:27:00.110Z,78.56
2022-11-21T12:28:00.111Z,79.25
2022-11-21T12:29:00.131Z,78.77
2022-11-21T12:30:00.093Z,78.73
2022-11-21T12:31:00.248Z,78.42
2022-11-21T12:32:00.052Z,78.97
2022-11-21T12:33:03.698Z,78.52
2022-11-21T12:34:00.057Z,78.03
2022-11-21T12:35:00.024Z,77.83
2022-11-21T12:36:16.275Z,78.91
2022-11-21T12:37:00.997Z,79.22
2022-11-21T12:37:59.988Z,79.74
2022-11-21T12:38:59.984Z,79.67
2022-11-21T12:40:00.025Z,79.46
2022-11-21T12:41:00.587Z,80.26
2022-11-21T12:41:59.949Z,80.78
2022-11-21T12:42:59.954Z,80.78
2022-11-21T12:43:59.927Z,80.54
2022-11-21T12:44:59.932Z,79.91
2022-11-21T12:45:59.903Z,79.60
2022-11-21T12:46:59.909Z,79.84
2022-11-21T12:47:59.913Z,79.74
2022-11-21T12:48:59.888Z,80.26
2022-11-21T12:49:59.862Z,80.16
2022-11-21T12:50:59.868Z,80.74
2022-11-21T12:51:59.845Z,80.22
2022-11-21T12:52:59.832Z,80.33
2022-11-21T12:53:59.832Z,79.70
2022-11-21T12:54:59.819Z,79.60